This is the latest recevied weather packets stored in our database for station/object KD0KHX-10. If no packets are shown the sender has not sent any weather packets the latest 10 day(s).
| Time | Temp. | Humidity | Pressure | Rain* | Wind** | Luminosity | Snow |
|---|---|---|---|---|---|---|---|
| 1778217303 | 13.33° C | 63% | 1005.2 hPa | 0 mm | - | - | - |
| 1778217273 | 13.33° C | 63% | 1005.2 hPa | 0 mm | - | - | - |
| 1778216703 | 12.78° C | 64% | 1005.2 hPa | 0 mm | - | - | - |
| 1778216538 | 12.78° C | 64% | 1005.4 hPa | 0 mm | - | - | - |
| 1778216103 | 12.78° C | 64% | 1005.5 hPa | 0 mm | - | - | - |
| 1778216073 | 12.78° C | 64% | 1005.6 hPa | 0 mm | - | - | - |
| 1778215503 | 12.78° C | 64% | 1005.6 hPa | 0 mm | - | - | - |
| 1778215203 | 12.78° C | 63% | 1005.6 hPa | 0 mm | - | - | - |
| 1778214903 | 13.33° C | 63% | 1005.5 hPa | 0 mm | - | - | - |
| 1778214603 | 13.89° C | 61% | 1005.4 hPa | 0 mm | - | - | - |
| 1778214438 | 13.89° C | 58% | 1005.3 hPa | 0 mm | - | - | - |
| 1778214003 | 14.44° C | 56% | 1005.2 hPa | 0 mm | - | - | - |
| 1778213703 | 15° C | 55% | 1005.2 hPa | 0 mm | - | - | - |
| 1778213672 | 15° C | 55% | 1005.2 hPa | 0 mm | - | - | - |
| 1778213239 | 15° C | 53% | 1005 hPa | 0 mm | - | - | - |
| 1778212937 | 14.44° C | 55% | 1005 hPa | 0 mm | - | - | - |
| 1778212638 | 13.89° C | 56% | 1005.1 hPa | 0 mm | - | - | - |
| 1778212203 | 13.89° C | 58% | 1005.3 hPa | 0 mm | - | - | - |
| 1778211903 | 13.89° C | 58% | 1005.3 hPa | 0 mm | - | - | - |
| 1778211603 | 13.89° C | 57% | 1005.3 hPa | 0 mm | - | - | - |
| 1778211303 | 14.44° C | 56% | 1005.3 hPa | 0 mm | - | - | - |
| 1778211003 | 15° C | 54% | 1005.3 hPa | 0 mm | - | - | - |
| 1778210973 | 15° C | 54% | 1005.2 hPa | 0 mm | - | - | - |
| 1778210403 | 16.11° C | 49% | 1005 hPa | 0 mm | - | - | - |
| 1778210103 | 16.11° C | 46% | 1005 hPa | 0 mm | - | - | - |
* Rain latest hour (hover to see other rain measurements)
** Current wind speed in m/s (hover to see current wind gust speed)